sensor_id;sensor_type;location;lat;lon;timestamp;P1;durP1;ratioP1;P2;durP2;ratioP2
23474;SDS011;11910;52.086;21.066;2023-11-21T00:00:33;21.17;;;14.63;;
23474;SDS011;11910;52.086;21.066;2023-11-21T00:03:01;19.25;;;14.23;;
23474;SDS011;11910;52.086;21.066;2023-11-21T00:05:27;23.08;;;14.55;;
23474;SDS011;11910;52.086;21.066;2023-11-21T00:07:52;23.75;;;15.48;;
23474;SDS011;11910;52.086;21.066;2023-11-21T00:10:18;22.23;;;15.35;;
23474;SDS011;11910;52.086;21.066;2023-11-21T00:12:43;24.85;;;16.00;;
23474;SDS011;11910;52.086;21.066;2023-11-21T00:15:09;24.45;;;16.00;;
23474;SDS011;11910;52.086;21.066;2023-11-21T00:17:38;25.35;;;16.80;;
23474;SDS011;11910;52.086;21.066;2023-11-21T00:20:05;24.42;;;17.13;;
23474;SDS011;11910;52.086;21.066;2023-11-21T00:22:32;27.23;;;17.33;;
23474;SDS011;11910;52.086;21.066;2023-11-21T00:24:59;25.15;;;17.02;;
23474;SDS011;11910;52.086;21.066;2023-11-21T00:27:24;31.10;;;19.83;;
23474;SDS011;11910;52.086;21.066;2023-11-21T00:29:50;33.65;;;19.17;;
23474;SDS011;11910;52.086;21.066;2023-11-21T00:32:16;32.88;;;19.48;;
23474;SDS011;11910;52.086;21.066;2023-11-21T00:34:41;32.55;;;19.95;;
23474;SDS011;11910;52.086;21.066;2023-11-21T00:37:07;28.15;;;18.63;;
23474;SDS011;11910;52.086;21.066;2023-11-21T00:39:33;29.42;;;19.63;;
23474;SDS011;11910;52.086;21.066;2023-11-21T00:42:00;35.20;;;20.38;;
23474;SDS011;11910;52.086;21.066;2023-11-21T00:44:25;32.22;;;20.70;;
23474;SDS011;11910;52.086;21.066;2023-11-21T00:46:51;37.72;;;22.02;;
23474;SDS011;11910;52.086;21.066;2023-11-21T00:49:16;34.22;;;21.52;;
23474;SDS011;11910;52.086;21.066;2023-11-21T00:51:42;31.52;;;20.10;;
23474;SDS011;11910;52.086;21.066;2023-11-21T00:54:08;33.13;;;20.58;;
23474;SDS011;11910;52.086;21.066;2023-11-21T00:56:33;33.92;;;20.30;;
23474;SDS011;11910;52.086;21.066;2023-11-21T00:58:59;35.65;;;21.52;;
23474;SDS011;11910;52.086;21.066;2023-11-21T01:01:24;34.38;;;22.60;;
23474;SDS011;11910;52.086;21.066;2023-11-21T01:03:50;36.42;;;22.83;;
23474;SDS011;11910;52.086;21.066;2023-11-21T01:06:16;37.22;;;23.50;;
23474;SDS011;11910;52.086;21.066;2023-11-21T01:08:42;41.85;;;25.13;;
23474;SDS011;11910;52.086;21.066;2023-11-21T01:11:08;40.22;;;23.17;;
23474;SDS011;11910;52.086;21.066;2023-11-21T01:13:37;39.00;;;23.00;;
23474;SDS011;11910;52.086;21.066;2023-11-21T01:16:04;34.38;;;23.08;;
23474;SDS011;11910;52.086;21.066;2023-11-21T01:18:31;41.17;;;24.63;;
23474;SDS011;11910;52.086;21.066;2023-11-21T01:20:57;42.75;;;25.10;;
23474;SDS011;11910;52.086;21.066;2023-11-21T01:23:22;40.40;;;24.58;;
23474;SDS011;11910;52.086;21.066;2023-11-21T01:25:48;42.20;;;24.60;;
23474;SDS011;11910;52.086;21.066;2023-11-21T01:28:14;43.25;;;24.75;;
23474;SDS011;11910;52.086;21.066;2023-11-21T01:30:39;41.35;;;25.77;;
23474;SDS011;11910;52.086;21.066;2023-11-21T01:33:05;49.45;;;26.52;;
23474;SDS011;11910;52.086;21.066;2023-11-21T01:35:31;47.10;;;26.48;;
23474;SDS011;11910;52.086;21.066;2023-11-21T01:37:56;48.08;;;26.85;;
23474;SDS011;11910;52.086;21.066;2023-11-21T01:40:22;41.00;;;25.92;;
23474;SDS011;11910;52.086;21.066;2023-11-21T01:42:47;45.08;;;27.00;;
23474;SDS011;11910;52.086;21.066;2023-11-21T01:45:13;46.08;;;27.10;;
23474;SDS011;11910;52.086;21.066;2023-11-21T01:47:40;41.13;;;27.13;;
23474;SDS011;11910;52.086;21.066;2023-11-21T01:50:07;46.47;;;28.08;;
23474;SDS011;11910;52.086;21.066;2023-11-21T01:52:36;45.90;;;27.00;;
23474;SDS011;11910;52.086;21.066;2023-11-21T01:55:03;49.35;;;27.55;;
23474;SDS011;11910;52.086;21.066;2023-11-21T01:57:31;43.45;;;26.73;;
23474;SDS011;11910;52.086;21.066;2023-11-21T01:59:57;45.00;;;27.13;;
23474;SDS011;11910;52.086;21.066;2023-11-21T02:02:40;46.30;;;27.65;;
23474;SDS011;11910;52.086;21.066;2023-11-21T02:05:12;45.55;;;27.80;;
23474;SDS011;11910;52.086;21.066;2023-11-21T02:07:39;44.28;;;27.15;;
23474;SDS011;11910;52.086;21.066;2023-11-21T02:10:06;44.30;;;26.73;;
23474;SDS011;11910;52.086;21.066;2023-11-21T02:12:33;42.85;;;25.38;;
23474;SDS011;11910;52.086;21.066;2023-11-21T02:15:00;45.25;;;24.85;;
23474;SDS011;11910;52.086;21.066;2023-11-21T02:17:34;45.17;;;25.90;;
23474;SDS011;11910;52.086;21.066;2023-11-21T02:20:03;46.00;;;26.52;;
23474;SDS011;11910;52.086;21.066;2023-11-21T02:22:31;46.67;;;26.73;;
23474;SDS011;11910;52.086;21.066;2023-11-21T02:25:02;45.40;;;26.67;;
23474;SDS011;11910;52.086;21.066;2023-11-21T02:27:28;44.42;;;27.30;;
23474;SDS011;11910;52.086;21.066;2023-11-21T02:29:54;45.08;;;27.17;;
23474;SDS011;11910;52.086;21.066;2023-11-21T02:32:20;40.88;;;25.83;;
23474;SDS011;11910;52.086;21.066;2023-11-21T02:34:47;42.28;;;26.13;;
23474;SDS011;11910;52.086;21.066;2023-11-21T02:37:13;43.75;;;26.88;;
23474;SDS011;11910;52.086;21.066;2023-11-21T02:39:39;44.03;;;27.27;;
23474;SDS011;11910;52.086;21.066;2023-11-21T02:42:05;46.28;;;27.90;;
23474;SDS011;11910;52.086;21.066;2023-11-21T02:44:30;45.53;;;26.67;;
23474;SDS011;11910;52.086;21.066;2023-11-21T02:46:56;44.58;;;25.65;;
23474;SDS011;11910;52.086;21.066;2023-11-21T02:49:22;43.10;;;26.50;;
23474;SDS011;11910;52.086;21.066;2023-11-21T02:51:48;39.22;;;25.83;;
23474;SDS011;11910;52.086;21.066;2023-11-21T02:54:14;42.08;;;26.02;;
23474;SDS011;11910;52.086;21.066;2023-11-21T02:56:41;43.08;;;26.17;;
23474;SDS011;11910;52.086;21.066;2023-11-21T02:59:07;43.00;;;25.90;;
23474;SDS011;11910;52.086;21.066;2023-11-21T03:01:33;41.83;;;27.35;;
23474;SDS011;11910;52.086;21.066;2023-11-21T03:03:58;38.30;;;26.08;;
23474;SDS011;11910;52.086;21.066;2023-11-21T03:06:24;42.20;;;26.92;;
23474;SDS011;11910;52.086;21.066;2023-11-21T03:08:50;37.08;;;24.48;;
23474;SDS011;11910;52.086;21.066;2023-11-21T03:11:16;39.45;;;24.30;;
23474;SDS011;11910;52.086;21.066;2023-11-21T03:13:41;35.83;;;23.60;;
23474;SDS011;11910;52.086;21.066;2023-11-21T03:16:08;35.05;;;23.88;;
23474;SDS011;11910;52.086;21.066;2023-11-21T03:18:34;35.92;;;22.67;;
23474;SDS011;11910;52.086;21.066;2023-11-21T03:21:00;36.60;;;22.67;;
23474;SDS011;11910;52.086;21.066;2023-11-21T03:23:25;31.45;;;21.05;;
23474;SDS011;11910;52.086;21.066;2023-11-21T03:25:51;34.20;;;22.52;;
23474;SDS011;11910;52.086;21.066;2023-11-21T03:28:16;29.80;;;21.88;;
23474;SDS011;11910;52.086;21.066;2023-11-21T03:30:42;31.08;;;21.45;;
23474;SDS011;11910;52.086;21.066;2023-11-21T03:33:07;34.40;;;22.00;;
23474;SDS011;11910;52.086;21.066;2023-11-21T03:35:33;29.92;;;21.15;;
23474;SDS011;11910;52.086;21.066;2023-11-21T03:37:58;31.95;;;22.23;;
23474;SDS011;11910;52.086;21.066;2023-11-21T03:40:24;32.90;;;22.70;;
23474;SDS011;11910;52.086;21.066;2023-11-21T03:42:50;31.98;;;21.23;;
23474;SDS011;11910;52.086;21.066;2023-11-21T03:45:15;31.33;;;20.48;;
23474;SDS011;11910;52.086;21.066;2023-11-21T03:47:41;28.00;;;19.50;;
23474;SDS011;11910;52.086;21.066;2023-11-21T03:50:07;27.58;;;19.63;;
23474;SDS011;11910;52.086;21.066;2023-11-21T03:52:34;26.25;;;19.23;;
23474;SDS011;11910;52.086;21.066;2023-11-21T03:55:00;25.63;;;18.73;;
23474;SDS011;11910;52.086;21.066;2023-11-21T03:57:26;24.63;;;18.27;;
23474;SDS011;11910;52.086;21.066;2023-11-21T03:59:52;26.92;;;19.90;;
23474;SDS011;11910;52.086;21.066;2023-11-21T04:02:18;29.33;;;20.80;;
23474;SDS011;11910;52.086;21.066;2023-11-21T04:04:44;31.10;;;21.95;;
23474;SDS011;11910;52.086;21.066;2023-11-21T04:07:10;33.10;;;21.85;;
23474;SDS011;11910;52.086;21.066;2023-11-21T04:09:36;28.48;;;20.05;;
23474;SDS011;11910;52.086;21.066;2023-11-21T04:12:01;28.67;;;20.15;;
23474;SDS011;11910;52.086;21.066;2023-11-21T04:14:27;30.95;;;22.13;;
23474;SDS011;11910;52.086;21.066;2023-11-21T04:16:53;30.45;;;21.13;;
23474;SDS011;11910;52.086;21.066;2023-11-21T04:19:19;30.35;;;21.77;;
23474;SDS011;11910;52.086;21.066;2023-11-21T04:21:44;30.50;;;21.67;;
23474;SDS011;11910;52.086;21.066;2023-11-21T04:24:11;30.85;;;21.42;;
23474;SDS011;11910;52.086;21.066;2023-11-21T04:26:36;30.98;;;20.75;;
23474;SDS011;11910;52.086;21.066;2023-11-21T04:29:02;28.80;;;20.73;;
23474;SDS011;11910;52.086;21.066;2023-11-21T04:31:29;30.52;;;20.65;;
23474;SDS011;11910;52.086;21.066;2023-11-21T04:33:55;30.83;;;22.08;;
23474;SDS011;11910;52.086;21.066;2023-11-21T04:36:20;30.75;;;20.48;;
23474;SDS011;11910;52.086;21.066;2023-11-21T04:38:46;29.30;;;20.38;;
23474;SDS011;11910;52.086;21.066;2023-11-21T04:41:11;30.90;;;21.00;;
23474;SDS011;11910;52.086;21.066;2023-11-21T04:43:37;30.45;;;21.70;;
23474;SDS011;11910;52.086;21.066;2023-11-21T04:46:03;33.70;;;22.30;;
23474;SDS011;11910;52.086;21.066;2023-11-21T04:48:28;32.05;;;21.50;;
23474;SDS011;11910;52.086;21.066;2023-11-21T04:50:54;32.30;;;22.80;;
23474;SDS011;11910;52.086;21.066;2023-11-21T04:53:19;30.63;;;21.17;;
23474;SDS011;11910;52.086;21.066;2023-11-21T04:55:45;29.45;;;20.90;;
23474;SDS011;11910;52.086;21.066;2023-11-21T04:58:11;30.38;;;20.67;;
23474;SDS011;11910;52.086;21.066;2023-11-21T05:00:37;28.73;;;19.88;;
23474;SDS011;11910;52.086;21.066;2023-11-21T05:03:03;29.50;;;19.67;;
23474;SDS011;11910;52.086;21.066;2023-11-21T05:05:30;29.13;;;20.77;;
23474;SDS011;11910;52.086;21.066;2023-11-21T05:07:55;31.55;;;20.10;;
23474;SDS011;11910;52.086;21.066;2023-11-21T05:10:21;28.88;;;20.10;;
23474;SDS011;11910;52.086;21.066;2023-11-21T05:12:49;27.10;;;19.48;;
23474;SDS011;11910;52.086;21.066;2023-11-21T05:15:15;26.80;;;19.15;;
23474;SDS011;11910;52.086;21.066;2023-11-21T05:17:45;26.13;;;19.30;;
23474;SDS011;11910;52.086;21.066;2023-11-21T05:20:25;30.45;;;20.48;;
23474;SDS011;11910;52.086;21.066;2023-11-21T05:22:50;25.58;;;18.77;;
23474;SDS011;11910;52.086;21.066;2023-11-21T05:25:16;26.70;;;19.88;;
23474;SDS011;11910;52.086;21.066;2023-11-21T05:27:43;28.85;;;19.55;;
23474;SDS011;11910;52.086;21.066;2023-11-21T05:30:10;24.08;;;18.35;;
23474;SDS011;11910;52.086;21.066;2023-11-21T05:32:36;27.35;;;19.27;;
23474;SDS011;11910;52.086;21.066;2023-11-21T05:35:02;26.20;;;19.17;;
23474;SDS011;11910;52.086;21.066;2023-11-21T05:37:28;24.83;;;17.13;;
23474;SDS011;11910;52.086;21.066;2023-11-21T05:39:54;25.60;;;17.92;;
23474;SDS011;11910;52.086;21.066;2023-11-21T05:42:24;24.00;;;17.75;;
23474;SDS011;11910;52.086;21.066;2023-11-21T05:44:50;22.67;;;16.20;;
23474;SDS011;11910;52.086;21.066;2023-11-21T05:47:15;22.35;;;16.42;;
23474;SDS011;11910;52.086;21.066;2023-11-21T05:49:41;23.80;;;17.13;;
23474;SDS011;11910;52.086;21.066;2023-11-21T05:52:07;21.10;;;15.90;;
23474;SDS011;11910;52.086;21.066;2023-11-21T05:54:32;22.20;;;16.08;;
23474;SDS011;11910;52.086;21.066;2023-11-21T05:56:58;19.70;;;14.90;;
23474;SDS011;11910;52.086;21.066;2023-11-21T05:59:24;21.17;;;15.90;;
23474;SDS011;11910;52.086;21.066;2023-11-21T06:01:50;20.23;;;15.18;;
23474;SDS011;11910;52.086;21.066;2023-11-21T06:04:15;19.98;;;15.48;;
23474;SDS011;11910;52.086;21.066;2023-11-21T06:06:41;20.15;;;14.65;;
23474;SDS011;11910;52.086;21.066;2023-11-21T06:09:07;20.45;;;15.43;;
23474;SDS011;11910;52.086;21.066;2023-11-21T06:11:34;21.73;;;15.98;;
23474;SDS011;11910;52.086;21.066;2023-11-21T06:14:00;21.27;;;15.73;;
23474;SDS011;11910;52.086;21.066;2023-11-21T06:16:25;21.58;;;15.80;;
23474;SDS011;11910;52.086;21.066;2023-11-21T06:18:52;20.63;;;15.68;;
23474;SDS011;11910;52.086;21.066;2023-11-21T06:21:18;19.38;;;15.05;;
23474;SDS011;11910;52.086;21.066;2023-11-21T06:23:44;19.45;;;15.05;;
23474;SDS011;11910;52.086;21.066;2023-11-21T06:26:09;20.10;;;15.48;;
23474;SDS011;11910;52.086;21.066;2023-11-21T06:28:35;20.73;;;15.68;;
23474;SDS011;11910;52.086;21.066;2023-11-21T06:31:03;21.92;;;15.15;;
23474;SDS011;11910;52.086;21.066;2023-11-21T06:33:33;21.33;;;16.08;;
23474;SDS011;11910;52.086;21.066;2023-11-21T06:35:58;17.10;;;14.68;;
23474;SDS011;11910;52.086;21.066;2023-11-21T06:38:28;23.13;;;16.00;;
23474;SDS011;11910;52.086;21.066;2023-11-21T06:40:55;21.77;;;15.73;;
23474;SDS011;11910;52.086;21.066;2023-11-21T06:43:22;21.38;;;15.55;;
23474;SDS011;11910;52.086;21.066;2023-11-21T06:45:47;21.85;;;16.08;;
23474;SDS011;11910;52.086;21.066;2023-11-21T06:48:13;19.45;;;13.98;;
23474;SDS011;11910;52.086;21.066;2023-11-21T06:50:39;20.58;;;15.40;;
23474;SDS011;11910;52.086;21.066;2023-11-21T06:53:06;24.25;;;16.42;;
23474;SDS011;11910;52.086;21.066;2023-11-21T06:55:33;18.92;;;14.52;;
23474;SDS011;11910;52.086;21.066;2023-11-21T06:57:59;19.15;;;14.38;;
23474;SDS011;11910;52.086;21.066;2023-11-21T07:00:25;19.27;;;14.80;;
23474;SDS011;11910;52.086;21.066;2023-11-21T07:02:52;16.58;;;13.63;;
23474;SDS011;11910;52.086;21.066;2023-11-21T07:05:19;19.02;;;14.60;;
23474;SDS011;11910;52.086;21.066;2023-11-21T07:07:46;17.10;;;13.65;;
23474;SDS011;11910;52.086;21.066;2023-11-21T07:10:13;18.83;;;13.98;;
23474;SDS011;11910;52.086;21.066;2023-11-21T07:12:38;18.85;;;13.48;;
23474;SDS011;11910;52.086;21.066;2023-11-21T07:15:05;16.73;;;13.07;;
23474;SDS011;11910;52.086;21.066;2023-11-21T07:17:34;16.85;;;13.90;;
23474;SDS011;11910;52.086;21.066;2023-11-21T07:20:01;16.52;;;13.07;;
23474;SDS011;11910;52.086;21.066;2023-11-21T07:22:27;20.60;;;14.57;;
23474;SDS011;11910;52.086;21.066;2023-11-21T07:24:53;16.95;;;13.50;;
23474;SDS011;11910;52.086;21.066;2023-11-21T07:27:19;15.90;;;12.57;;
23474;SDS011;11910;52.086;21.066;2023-11-21T07:29:44;16.02;;;12.77;;
23474;SDS011;11910;52.086;21.066;2023-11-21T07:32:10;18.23;;;14.32;;
23474;SDS011;11910;52.086;21.066;2023-11-21T07:34:36;16.88;;;13.52;;
23474;SDS011;11910;52.086;21.066;2023-11-21T07:37:02;18.88;;;13.65;;
23474;SDS011;11910;52.086;21.066;2023-11-21T07:39:28;18.90;;;13.82;;
23474;SDS011;11910;52.086;21.066;2023-11-21T07:41:55;17.50;;;13.55;;
23474;SDS011;11910;52.086;21.066;2023-11-21T07:44:23;20.00;;;13.90;;
23474;SDS011;11910;52.086;21.066;2023-11-21T07:46:48;18.90;;;14.23;;
23474;SDS011;11910;52.086;21.066;2023-11-21T07:49:17;19.42;;;14.65;;
23474;SDS011;11910;52.086;21.066;2023-11-21T07:51:45;19.38;;;14.65;;
23474;SDS011;11910;52.086;21.066;2023-11-21T07:54:11;18.83;;;14.85;;
23474;SDS011;11910;52.086;21.066;2023-11-21T07:56:36;18.55;;;14.50;;
23474;SDS011;11910;52.086;21.066;2023-11-21T07:59:02;20.17;;;14.63;;
23474;SDS011;11910;52.086;21.066;2023-11-21T08:01:28;19.08;;;14.43;;
23474;SDS011;11910;52.086;21.066;2023-11-21T08:03:54;21.10;;;15.13;;
23474;SDS011;11910;52.086;21.066;2023-11-21T08:06:22;21.33;;;16.02;;
23474;SDS011;11910;52.086;21.066;2023-11-21T08:08:51;24.10;;;15.95;;
23474;SDS011;11910;52.086;21.066;2023-11-21T08:11:16;21.75;;;15.45;;
23474;SDS011;11910;52.086;21.066;2023-11-21T08:13:42;23.17;;;16.50;;
23474;SDS011;11910;52.086;21.066;2023-11-21T08:16:08;23.50;;;16.90;;
23474;SDS011;11910;52.086;21.066;2023-11-21T08:18:34;24.02;;;15.82;;
23474;SDS011;11910;52.086;21.066;2023-11-21T08:21:00;23.75;;;16.35;;
23474;SDS011;11910;52.086;21.066;2023-11-21T08:23:26;21.40;;;16.17;;
23474;SDS011;11910;52.086;21.066;2023-11-21T08:25:52;23.52;;;16.73;;
23474;SDS011;11910;52.086;21.066;2023-11-21T08:28:18;23.25;;;16.38;;
23474;SDS011;11910;52.086;21.066;2023-11-21T08:30:45;24.65;;;17.77;;
23474;SDS011;11910;52.086;21.066;2023-11-21T08:33:11;24.10;;;17.33;;
23474;SDS011;11910;52.086;21.066;2023-11-21T08:35:36;23.92;;;17.35;;
23474;SDS011;11910;52.086;21.066;2023-11-21T08:38:03;24.42;;;17.23;;
23474;SDS011;11910;52.086;21.066;2023-11-21T08:40:29;21.48;;;16.80;;
23474;SDS011;11910;52.086;21.066;2023-11-21T08:42:55;24.83;;;17.70;;
23474;SDS011;11910;52.086;21.066;2023-11-21T08:45:21;23.75;;;17.48;;
23474;SDS011;11910;52.086;21.066;2023-11-21T08:47:47;23.27;;;16.85;;
23474;SDS011;11910;52.086;21.066;2023-11-21T08:50:13;23.92;;;17.75;;
23474;SDS011;11910;52.086;21.066;2023-11-21T08:52:39;23.75;;;16.92;;
23474;SDS011;11910;52.086;21.066;2023-11-21T08:55:06;24.58;;;16.83;;
23474;SDS011;11910;52.086;21.066;2023-11-21T08:57:37;22.13;;;16.35;;
23474;SDS011;11910;52.086;21.066;2023-11-21T09:00:04;24.25;;;16.88;;
23474;SDS011;11910;52.086;21.066;2023-11-21T09:02:36;22.67;;;16.67;;
23474;SDS011;11910;52.086;21.066;2023-11-21T09:05:02;21.60;;;16.67;;
23474;SDS011;11910;52.086;21.066;2023-11-21T09:07:29;23.13;;;15.80;;
23474;SDS011;11910;52.086;21.066;2023-11-21T09:09:55;20.80;;;16.08;;
23474;SDS011;11910;52.086;21.066;2023-11-21T09:12:21;24.67;;;17.13;;
23474;SDS011;11910;52.086;21.066;2023-11-21T09:14:47;23.85;;;16.98;;
23474;SDS011;11910;52.086;21.066;2023-11-21T09:17:13;21.88;;;16.42;;
23474;SDS011;11910;52.086;21.066;2023-11-21T09:19:39;21.13;;;15.50;;
23474;SDS011;11910;52.086;21.066;2023-11-21T09:22:06;20.48;;;15.50;;
23474;SDS011;11910;52.086;21.066;2023-11-21T09:24:32;21.48;;;15.82;;
23474;SDS011;11910;52.086;21.066;2023-11-21T09:26:58;20.85;;;16.67;;
23474;SDS011;11910;52.086;21.066;2023-11-21T09:29:25;25.17;;;16.90;;
23474;SDS011;11910;52.086;21.066;2023-11-21T09:31:52;21.73;;;16.38;;
23474;SDS011;11910;52.086;21.066;2023-11-21T09:34:19;21.70;;;16.60;;
23474;SDS011;11910;52.086;21.066;2023-11-21T09:36:45;21.38;;;16.58;;
23474;SDS011;11910;52.086;21.066;2023-11-21T09:39:11;24.10;;;16.83;;
23474;SDS011;11910;52.086;21.066;2023-11-21T09:41:52;23.70;;;17.50;;
23474;SDS011;11910;52.086;21.066;2023-11-21T09:44:27;22.92;;;16.65;;
23474;SDS011;11910;52.086;21.066;2023-11-21T09:47:00;23.88;;;16.65;;
23474;SDS011;11910;52.086;21.066;2023-11-21T09:49:27;21.73;;;16.38;;
23474;SDS011;11910;52.086;21.066;2023-11-21T09:51:56;22.40;;;16.80;;
23474;SDS011;11910;52.086;21.066;2023-11-21T09:54:28;21.17;;;16.17;;
23474;SDS011;11910;52.086;21.066;2023-11-21T09:56:56;22.05;;;16.42;;
23474;SDS011;11910;52.086;21.066;2023-11-21T09:59:25;20.58;;;15.88;;
23474;SDS011;11910;52.086;21.066;2023-11-21T10:01:55;25.48;;;17.90;;
23474;SDS011;11910;52.086;21.066;2023-11-21T10:04:23;22.88;;;16.30;;
23474;SDS011;11910;52.086;21.066;2023-11-21T10:06:49;22.85;;;17.30;;
23474;SDS011;11910;52.086;21.066;2023-11-21T10:09:16;20.85;;;16.05;;
23474;SDS011;11910;52.086;21.066;2023-11-21T10:11:42;24.67;;;16.88;;
23474;SDS011;11910;52.086;21.066;2023-11-21T10:14:11;23.75;;;17.75;;
23474;SDS011;11910;52.086;21.066;2023-11-21T10:16:38;24.63;;;17.58;;
23474;SDS011;11910;52.086;21.066;2023-11-21T10:19:05;21.65;;;16.20;;
23474;SDS011;11910;52.086;21.066;2023-11-21T10:21:34;23.33;;;16.55;;
23474;SDS011;11910;52.086;21.066;2023-11-21T10:24:00;19.45;;;16.27;;
23474;SDS011;11910;52.086;21.066;2023-11-21T10:26:26;21.40;;;16.38;;
23474;SDS011;11910;52.086;21.066;2023-11-21T10:28:59;24.10;;;17.85;;
23474;SDS011;11910;52.086;21.066;2023-11-21T10:31:32;22.75;;;16.45;;
23474;SDS011;11910;52.086;21.066;2023-11-21T10:34:18;21.58;;;15.88;;
23474;SDS011;11910;52.086;21.066;2023-11-21T10:36:45;23.55;;;16.70;;
23474;SDS011;11910;52.086;21.066;2023-11-21T10:39:18;22.90;;;16.52;;
23474;SDS011;11910;52.086;21.066;2023-11-21T10:41:45;23.20;;;16.63;;
23474;SDS011;11910;52.086;21.066;2023-11-21T10:44:17;22.88;;;16.85;;
23474;SDS011;11910;52.086;21.066;2023-11-21T10:46:49;21.83;;;16.50;;
23474;SDS011;11910;52.086;21.066;2023-11-21T10:49:18;22.58;;;17.13;;
23474;SDS011;11910;52.086;21.066;2023-11-21T10:52:16;21.40;;;17.25;;
23474;SDS011;11910;52.086;21.066;2023-11-21T10:54:44;21.33;;;16.80;;
23474;SDS011;11910;52.086;21.066;2023-11-21T10:57:10;23.05;;;16.98;;
23474;SDS011;11910;52.086;21.066;2023-11-21T11:02:29;23.05;;;16.92;;
23474;SDS011;11910;52.086;21.066;2023-11-21T11:04:57;21.55;;;16.05;;
23474;SDS011;11910;52.086;21.066;2023-11-21T11:07:26;23.55;;;17.30;;
23474;SDS011;11910;52.086;21.066;2023-11-21T11:09:58;20.90;;;16.70;;
23474;SDS011;11910;52.086;21.066;2023-11-21T11:12:25;22.67;;;17.35;;
23474;SDS011;11910;52.086;21.066;2023-11-21T11:14:51;23.77;;;18.48;;
23474;SDS011;11910;52.086;21.066;2023-11-21T11:17:17;23.05;;;17.95;;
23474;SDS011;11910;52.086;21.066;2023-11-21T11:19:45;25.33;;;18.08;;
23474;SDS011;11910;52.086;21.066;2023-11-21T11:36:51;26.25;;;18.67;;
23474;SDS011;11910;52.086;21.066;2023-11-21T11:39:41;25.00;;;18.77;;
23474;SDS011;11910;52.086;21.066;2023-11-21T11:42:12;24.35;;;17.55;;
23474;SDS011;11910;52.086;21.066;2023-11-21T11:52:49;26.23;;;19.20;;
23474;SDS011;11910;52.086;21.066;2023-11-21T11:55:38;24.92;;;18.08;;
23474;SDS011;11910;52.086;21.066;2023-11-21T11:58:09;25.83;;;17.95;;
23474;SDS011;11910;52.086;21.066;2023-11-21T12:00:36;24.83;;;17.60;;
23474;SDS011;11910;52.086;21.066;2023-11-21T12:03:07;25.40;;;17.48;;
23474;SDS011;11910;52.086;21.066;2023-11-21T12:05:34;26.00;;;17.60;;
23474;SDS011;11910;52.086;21.066;2023-11-21T12:08:04;24.42;;;17.38;;
23474;SDS011;11910;52.086;21.066;2023-11-21T12:10:32;23.50;;;17.52;;
23474;SDS011;11910;52.086;21.066;2023-11-21T12:13:19;25.13;;;17.67;;
23474;SDS011;11910;52.086;21.066;2023-11-21T12:15:48;22.90;;;17.25;;
23474;SDS011;11910;52.086;21.066;2023-11-21T12:18:26;25.00;;;18.02;;
23474;SDS011;11910;52.086;21.066;2023-11-21T12:20:52;23.40;;;17.25;;
23474;SDS011;11910;52.086;21.066;2023-11-21T12:23:18;22.73;;;16.67;;
23474;SDS011;11910;52.086;21.066;2023-11-21T12:25:49;21.42;;;16.42;;
23474;SDS011;11910;52.086;21.066;2023-11-21T12:28:14;26.08;;;17.15;;
23474;SDS011;11910;52.086;21.066;2023-11-21T12:30:40;23.25;;;17.08;;
23474;SDS011;11910;52.086;21.066;2023-11-21T12:33:05;25.30;;;17.15;;
23474;SDS011;11910;52.086;21.066;2023-11-21T12:35:42;23.98;;;17.17;;
23474;SDS011;11910;52.086;21.066;2023-11-21T12:38:54;24.55;;;17.77;;
23474;SDS011;11910;52.086;21.066;2023-11-21T12:41:28;23.40;;;18.08;;
23474;SDS011;11910;52.086;21.066;2023-11-21T12:44:12;24.40;;;18.75;;
23474;SDS011;11910;52.086;21.066;2023-11-21T12:46:49;25.45;;;18.20;;
23474;SDS011;11910;52.086;21.066;2023-11-21T12:49:24;28.55;;;19.58;;
23474;SDS011;11910;52.086;21.066;2023-11-21T12:51:50;27.02;;;19.48;;
23474;SDS011;11910;52.086;21.066;2023-11-21T12:54:25;27.70;;;18.95;;
23474;SDS011;11910;52.086;21.066;2023-11-21T12:56:50;27.17;;;19.73;;
23474;SDS011;11910;52.086;21.066;2023-11-21T12:59:24;26.52;;;19.55;;
23474;SDS011;11910;52.086;21.066;2023-11-21T13:01:50;24.02;;;17.77;;
23474;SDS011;11910;52.086;21.066;2023-11-21T13:04:16;26.42;;;18.75;;
23474;SDS011;11910;52.086;21.066;2023-11-21T13:06:43;23.85;;;18.35;;
23474;SDS011;11910;52.086;21.066;2023-11-21T13:09:09;25.70;;;18.73;;
23474;SDS011;11910;52.086;21.066;2023-11-21T13:11:36;24.63;;;18.77;;
23474;SDS011;11910;52.086;21.066;2023-11-21T13:14:02;24.88;;;18.48;;
23474;SDS011;11910;52.086;21.066;2023-11-21T13:16:28;23.02;;;17.75;;
23474;SDS011;11910;52.086;21.066;2023-11-21T13:18:55;25.77;;;18.83;;
23474;SDS011;11910;52.086;21.066;2023-11-21T13:21:21;27.40;;;19.27;;
23474;SDS011;11910;52.086;21.066;2023-11-21T13:23:47;24.77;;;19.20;;
23474;SDS011;11910;52.086;21.066;2023-11-21T13:26:16;26.58;;;18.50;;
23474;SDS011;11910;52.086;21.066;2023-11-21T13:28:41;22.55;;;17.38;;
23474;SDS011;11910;52.086;21.066;2023-11-21T13:31:11;24.98;;;18.98;;
23474;SDS011;11910;52.086;21.066;2023-11-21T13:33:46;24.05;;;18.17;;
23474;SDS011;11910;52.086;21.066;2023-11-21T13:36:16;24.20;;;18.13;;
23474;SDS011;11910;52.086;21.066;2023-11-21T13:38:47;23.88;;;18.05;;
23474;SDS011;11910;52.086;21.066;2023-11-21T13:41:13;23.95;;;18.20;;
23474;SDS011;11910;52.086;21.066;2023-11-21T13:43:39;23.48;;;18.13;;
23474;SDS011;11910;52.086;21.066;2023-11-21T13:46:09;23.70;;;17.08;;
23474;SDS011;11910;52.086;21.066;2023-11-21T13:48:46;21.50;;;17.60;;
23474;SDS011;11910;52.086;21.066;2023-11-21T13:51:20;23.30;;;17.20;;
23474;SDS011;11910;52.086;21.066;2023-11-21T13:53:55;21.60;;;16.85;;
23474;SDS011;11910;52.086;21.066;2023-11-21T13:56:21;23.23;;;17.65;;
23474;SDS011;11910;52.086;21.066;2023-11-21T13:58:50;24.17;;;16.90;;
23474;SDS011;11910;52.086;21.066;2023-11-21T14:01:17;24.00;;;18.05;;
23474;SDS011;11910;52.086;21.066;2023-11-21T14:04:12;23.92;;;17.38;;
23474;SDS011;11910;52.086;21.066;2023-11-21T14:06:42;22.35;;;17.60;;
23474;SDS011;11910;52.086;21.066;2023-11-21T14:09:15;24.15;;;18.08;;
23474;SDS011;11910;52.086;21.066;2023-11-21T14:11:54;23.23;;;17.50;;
23474;SDS011;11910;52.086;21.066;2023-11-21T14:14:21;25.67;;;18.98;;
23474;SDS011;11910;52.086;21.066;2023-11-21T14:16:50;24.38;;;18.77;;
23474;SDS011;11910;52.086;21.066;2023-11-21T14:19:16;25.45;;;18.80;;
23474;SDS011;11910;52.086;21.066;2023-11-21T14:21:42;26.05;;;18.73;;
23474;SDS011;11910;52.086;21.066;2023-11-21T14:24:11;24.90;;;18.38;;
23474;SDS011;11910;52.086;21.066;2023-11-21T14:26:39;26.25;;;18.85;;
23474;SDS011;11910;52.086;21.066;2023-11-21T14:29:06;26.35;;;18.90;;
23474;SDS011;11910;52.086;21.066;2023-11-21T14:31:33;23.15;;;17.70;;
23474;SDS011;11910;52.086;21.066;2023-11-21T14:33:59;24.17;;;18.40;;
23474;SDS011;11910;52.086;21.066;2023-11-21T14:36:26;25.10;;;18.25;;